VRMM/MLE METAR and TAF weather

Enter ICAO airport designator
Station Type Date Time Source
VRMM METAR 2020/01/23 05:00 UTC NOAA

VRMM 230500Z 09017KT 9000 FEW017 FEW018CB SCT110 BKN270 30/26 Q1012 CB NW TEMPO 5000 -SHRA


Station Type Date Time Source
VRMM Decoded METAR 2020/01/23 05:00 UTC NOAA

Male, Maldives (VRMM) 04-12N 073-32E 2M
Jan 23, 2020 - 12:00 AM EST / 2020.01.23 0500 UTC
Wind: from the E (090 degrees) at 20 MPH (17 KT):0
Visibility: 5 mile(s):0
Sky conditions: mostly cloudy
Weather: Cumulonimbus clouds observed
Temperature: 86 F (30 C)
Heat index: 99.3 F (37.4 C):1
Dew Point: 78 F (26 C)
Relative Humidity: 79%
Pressure (altimeter): 29.88 in. Hg (1012 hPa)
ob: VRMM 230500Z 09017KT 9000 FEW017 FEW018CB SCT110 BKN270 30/26 Q1012 CB NW TEMPO 5000 -SHRA
cycle: 5

Station Type Date Time Source
VRMM TAF 2020/01/23 06:12 UTC NOAA

TAF VRMM 230500Z 2306/2412 09018KT 9000 FEW018 BKN110
TEMPO 3000

Example: see airport list